Time;durP1;ratioP1;P1;durP2;ratioP2;P2;SDS_P1;SDS_P2;PMS_P1;PMS_P2;Temp;Humidity;BMP_temperature;BMP_pressure;BME280_temperature;BME280_humidity;BME280_pressure;Samples;Min_cycle;Max_cycle;Signal;HPM_P1;HPM_P2
2022/06/21 00:01:56;;;;;;;0.43;0.40;;;12.70;99.90;;;;;;5004730;28;20519;-80
2022/06/21 00:04:22;;;;;;;0.40;0.40;;;12.70;99.90;;;;;;4997270;28;20101;-84
2022/06/21 00:06:47;;;;;;;0.68;0.68;;;12.70;99.90;;;;;;4994691;28;20396;-81
2022/06/21 00:09:13;;;;;;;0.40;0.40;;;12.70;99.90;;;;;;4993393;28;20034;-81
2022/06/21 00:11:40;;;;;;;0.50;0.50;;;12.70;99.90;;;;;;4999418;28;20108;-82
2022/06/21 00:14:06;;;;;;;0.70;0.70;;;12.70;99.90;;;;;;4991592;28;20121;-80
2022/06/21 00:16:32;;;;;;;0.55;0.55;;;12.60;99.90;;;;;;4991133;28;20109;-80
2022/06/21 00:18:58;;;;;;;0.60;0.60;;;12.60;99.90;;;;;;4995286;28;20037;-80
2022/06/21 00:21:27;;;;;;;0.70;0.52;;;12.70;99.90;;;;;;4995441;28;20430;-80
2022/06/21 00:23:54;;;;;;;0.70;0.70;;;12.70;99.90;;;;;;4999679;28;20054;-82
2022/06/21 00:26:21;;;;;;;0.88;0.63;;;12.70;99.90;;;;;;4998650;28;20121;-81
2022/06/21 00:28:47;;;;;;;0.75;0.75;;;12.80;99.90;;;;;;4992889;28;20379;-80
2022/06/21 00:31:17;;;;;;;1.15;1.05;;;12.80;99.90;;;;;;4990544;28;20088;-80
2022/06/21 00:33:43;;;;;;;0.82;0.70;;;12.70;99.90;;;;;;4987969;28;20027;-81
2022/06/21 00:36:21;;;;;;;1.08;0.98;;;12.70;99.90;;;;;;4997151;28;20061;-81
2022/06/21 00:38:47;;;;;;;0.82;0.45;;;12.70;99.90;;;;;;4999350;28;20496;-81
2022/06/21 00:41:15;;;;;;;0.80;0.80;;;12.60;99.90;;;;;;5000894;28;20397;-81
2022/06/21 00:43:45;;;;;;;0.70;0.70;;;12.60;99.90;;;;;;4995951;28;20473;-82
2022/06/21 00:46:30;;;;;;;0.43;0.43;;;12.50;99.90;;;;;;4989857;28;20038;-83
2022/06/21 00:48:57;;;;;;;1.08;0.90;;;12.60;99.90;;;;;;4996628;28;20113;-81
2022/06/21 00:51:36;;;;;;;1.30;0.95;;;12.50;99.90;;;;;;4996802;28;20030;-81
2022/06/21 00:54:56;;;;;;;1.33;1.15;;;12.60;99.90;;;;;;4994717;28;20513;-81
2022/06/21 00:57:29;;;;;;;0.80;0.73;;;12.40;99.90;;;;;;4972277;28;20042;-80
2022/06/21 00:59:58;;;;;;;0.80;0.70;;;12.50;99.90;;;;;;4987405;28;20022;-82
2022/06/21 01:02:32;;;;;;;0.80;0.77;;;12.50;99.90;;;;;;4993531;28;20033;-80
2022/06/21 01:05:00;;;;;;;1.60;0.88;;;12.50;99.90;;;;;;5000251;28;20497;-82
2022/06/21 01:07:25;;;;;;;2.25;1.45;;;12.50;99.90;;;;;;5007577;28;20041;-80
2022/06/21 01:09:59;;;;;;;0.52;0.52;;;12.50;99.90;;;;;;4990181;28;20026;-82
2022/06/21 01:12:31;;;;;;;1.95;0.70;;;12.50;99.90;;;;;;4996698;28;20029;-84
2022/06/21 01:15:06;;;;;;;1.00;0.88;;;12.40;99.90;;;;;;5004207;28;20235;-83
2022/06/21 01:17:32;;;;;;;1.13;0.90;;;12.50;99.90;;;;;;4995281;28;20029;-82
2022/06/21 01:20:03;;;;;;;1.02;0.73;;;12.50;99.90;;;;;;4988212;28;20065;-81
2022/06/21 01:22:32;;;;;;;0.93;0.75;;;12.50;99.90;;;;;;4998340;28;20031;-83
2022/06/21 01:25:25;;;;;;;1.35;0.98;;;12.50;99.90;;;;;;5000501;28;20052;-82
2022/06/21 01:27:54;;;;;;;1.13;0.75;;;12.50;99.90;;;;;;4991028;28;20680;-82
2022/06/21 01:30:20;;;;;;;1.02;0.93;;;12.40;99.90;;;;;;4993115;28;20038;-80
2022/06/21 01:32:46;;;;;;;1.17;1.08;;;12.40;99.90;;;;;;4993093;28;20027;-82
2022/06/21 01:35:20;;;;;;;1.00;0.93;;;12.40;99.90;;;;;;4990778;28;20106;-82
2022/06/21 01:37:47;;;;;;;4.03;1.95;;;12.50;99.90;;;;;;4992600;28;20036;-78
2022/06/21 01:40:25;;;;;;;0.88;0.80;;;12.50;99.90;;;;;;4988641;28;20470;-79
2022/06/21 01:42:54;;;;;;;0.88;0.80;;;12.50;99.90;;;;;;4990335;28;20022;-79
2022/06/21 01:45:28;;;;;;;1.25;1.08;;;12.50;99.90;;;;;;4992150;28;20392;-76
2022/06/21 01:48:01;;;;;;;1.13;0.90;;;12.60;99.90;;;;;;4990678;28;20082;-85
2022/06/21 01:50:27;;;;;;;0.88;0.65;;;12.60;99.90;;;;;;4986507;28;20027;-79
2022/06/21 01:52:55;;;;;;;1.20;1.10;;;12.40;99.90;;;;;;4981319;28;20024;-79
2022/06/21 01:55:35;;;;;;;1.75;1.40;;;12.40;99.90;;;;;;4983924;28;20452;-77
2022/06/21 01:58:03;;;;;;;2.00;0.85;;;12.40;99.90;;;;;;4980199;28;20023;-79
2022/06/21 02:00:32;;;;;;;1.70;1.55;;;12.40;99.90;;;;;;4981408;28;20026;-79
2022/06/21 02:03:07;;;;;;;0.70;0.70;;;12.40;99.90;;;;;;4981876;28;20074;-78
2022/06/21 02:05:44;;;;;;;2.15;1.13;;;12.40;99.90;;;;;;4980580;28;20401;-79
2022/06/21 02:08:14;;;;;;;0.68;0.68;;;12.40;99.90;;;;;;4986155;28;20089;-79
2022/06/21 02:10:44;;;;;;;1.48;1.00;;;12.40;99.90;;;;;;4982932;28;20256;-78
2022/06/21 02:13:16;;;;;;;1.63;0.93;;;12.30;99.90;;;;;;4981507;28;20101;-79
2022/06/21 02:15:54;;;;;;;;;;;12.30;99.90;;;;;;4981533;28;20052;-79
2022/06/21 02:18:22;;;;;;;2.75;0.77;;;12.30;99.90;;;;;;4984122;28;19976;-79
2022/06/21 02:21:05;;;;;;;0.70;0.70;;;12.20;99.90;;;;;;4982209;28;20520;-79
2022/06/21 02:23:30;;;;;;;1.77;0.70;;;12.30;99.90;;;;;;4981464;28;20757;-78
2022/06/21 02:25:57;;;;;;;0.80;0.80;;;12.30;99.90;;;;;;4983151;28;20122;-79
2022/06/21 02:28:28;;;;;;;0.52;0.50;;;12.20;99.90;;;;;;4985469;28;20105;-78
2022/06/21 02:31:01;;;;;;;1.00;0.80;;;12.20;99.90;;;;;;4986091;28;20473;-79
2022/06/21 02:33:31;;;;;;;3.22;0.85;;;12.20;99.90;;;;;;4983201;28;20042;-78
2022/06/21 02:36:01;;;;;;;0.65;0.65;;;12.10;99.90;;;;;;4988625;28;20061;-78
2022/06/21 02:38:37;;;;;;;3.78;1.52;;;12.10;99.90;;;;;;4987154;28;20039;-79
2022/06/21 02:41:17;;;;;;;1.10;1.00;;;12.10;99.90;;;;;;4986595;28;20489;-78
2022/06/21 02:43:53;;;;;;;2.95;1.77;;;12.10;99.90;;;;;;4984585;28;20039;-79
2022/06/21 02:46:26;;;;;;;2.75;0.90;;;12.10;99.90;;;;;;4985409;28;20035;-78
2022/06/21 02:49:09;;;;;;;0.50;0.43;;;12.10;99.90;;;;;;4985463;28;20654;-79
2022/06/21 02:51:43;;;;;;;1.52;1.20;;;12.10;99.90;;;;;;4987004;28;20027;-80
2022/06/21 02:54:17;;;;;;;1.92;0.90;;;12.10;99.90;;;;;;4987550;28;20037;-79
2022/06/21 02:56:48;;;;;;;0.90;0.90;;;12.10;99.90;;;;;;4987043;28;20496;-79
2022/06/21 02:59:14;;;;;;;;;;;12.10;99.90;;;;;;4987204;28;20030;-79
2022/06/21 03:01:44;;;;;;;1.50;0.73;;;12.10;99.90;;;;;;4986714;28;19924;-79
2022/06/21 03:04:19;;;;;;;2.55;0.95;;;12.00;99.90;;;;;;4980125;28;20074;-80
2022/06/21 03:06:45;;;;;;;1.15;0.80;;;12.00;99.90;;;;;;4983267;28;21379;-79
2022/06/21 03:09:19;;;;;;;0.60;0.60;;;12.00;99.90;;;;;;4985621;28;20095;-80
2022/06/21 03:11:52;;;;;;;0.65;0.65;;;12.00;99.90;;;;;;4987319;28;20034;-78
2022/06/21 03:14:23;;;;;;;0.57;0.57;;;11.90;99.90;;;;;;4983015;28;20037;-77
2022/06/21 03:16:50;;;;;;;1.42;1.17;;;12.00;99.90;;;;;;4994038;28;20493;-79
2022/06/21 03:19:29;;;;;;;1.00;0.77;;;12.00;99.90;;;;;;4992730;28;20042;-77
2022/06/21 03:21:55;;;;;;;0.90;0.82;;;12.10;99.90;;;;;;4987200;28;20025;-78
2022/06/21 03:24:23;;;;;;;1.73;1.63;;;12.00;99.90;;;;;;4989695;28;20031;-78
2022/06/21 03:27:03;;;;;;;1.10;1.10;;;12.00;99.90;;;;;;4999371;28;20034;-78
2022/06/21 03:29:30;;;;;;;10.88;1.10;;;12.00;99.90;;;;;;4984787;28;20440;-78
2022/06/21 03:31:57;;;;;;;1.70;0.90;;;12.00;99.90;;;;;;4993975;28;20499;-77
2022/06/21 03:34:24;;;;;;;0.95;0.82;;;12.00;99.90;;;;;;4999224;28;20141;-76
2022/06/21 03:36:58;;;;;;;1.40;0.77;;;12.00;99.90;;;;;;4986148;28;20512;-82
2022/06/21 03:42:38;;;;;;;0.90;0.70;;;12.00;99.90;;;;;;4987774;28;20040;-82
2022/06/21 03:45:13;;;;;;;5.18;1.27;;;12.00;99.90;;;;;;4992449;28;20121;-82
2022/06/21 03:47:53;;;;;;;1.02;0.90;;;12.10;99.90;;;;;;5000221;28;20527;-83
2022/06/21 03:50:44;;;;;;;0.70;0.70;;;12.00;99.90;;;;;;4991191;28;20514;-82
2022/06/21 03:53:18;;;;;;;2.47;1.60;;;12.10;99.90;;;;;;4987272;28;20656;-82
2022/06/21 03:56:08;;;;;;;1.67;1.23;;;12.10;99.90;;;;;;4991041;28;20329;-83
2022/06/21 03:59:10;;;;;;;1.35;0.88;;;12.10;99.90;;;;;;4995754;28;20031;-82
2022/06/21 04:01:44;;;;;;;1.10;0.68;;;12.10;99.90;;;;;;4984863;28;20128;-80
2022/06/21 04:04:34;;;;;;;2.80;0.68;;;12.20;99.90;;;;;;4994704;28;20050;-79
2022/06/21 04:07:15;;;;;;;0.98;0.80;;;12.20;99.90;;;;;;4995889;28;20521;-80
2022/06/21 04:09:48;;;;;;;1.45;1.23;;;12.30;99.90;;;;;;4992866;28;20041;-79
2022/06/21 04:12:22;;;;;;;1.73;1.33;;;12.30;99.90;;;;;;5004141;28;20033;-79
2022/06/21 04:15:01;;;;;;;1.13;1.00;;;12.20;99.90;;;;;;4993774;28;20128;-82
2022/06/21 04:17:44;;;;;;;0.90;0.85;;;12.20;99.90;;;;;;4991867;28;20031;-83
2022/06/21 04:20:30;;;;;;;2.28;0.98;;;12.20;99.90;;;;;;4995618;28;20038;-80
2022/06/21 04:23:08;;;;;;;1.23;1.00;;;12.20;99.90;;;;;;4996705;28;20031;-80
2022/06/21 04:25:47;;;;;;;0.68;0.68;;;12.20;99.90;;;;;;4995896;28;20026;-80
2022/06/21 04:28:20;;;;;;;1.17;1.08;;;12.30;99.90;;;;;;4996550;28;20022;-81
2022/06/21 04:31:16;;;;;;;1.23;1.00;;;12.40;99.90;;;;;;4985769;28;20029;-80
2022/06/21 04:33:52;;;;;;;2.00;0.88;;;12.70;99.90;;;;;;4980655;28;20061;-79
2022/06/21 04:36:24;;;;;;;5.43;1.15;;;12.80;99.90;;;;;;5007298;28;20088;-82
2022/06/21 04:38:53;;;;;;;1.17;0.80;;;13.00;99.90;;;;;;4985892;28;20060;-79
2022/06/21 04:41:31;;;;;;;1.83;1.33;;;13.00;99.90;;;;;;4990913;28;20064;-81
2022/06/21 04:44:04;;;;;;;1.90;0.88;;;13.00;99.90;;;;;;4992364;28;20039;-78
2022/06/21 04:46:50;;;;;;;1.20;0.95;;;13.00;99.90;;;;;;4998168;28;20145;-83
2022/06/21 04:49:36;;;;;;;1.73;1.50;;;13.10;99.90;;;;;;4985573;28;20383;-82
2022/06/21 04:52:05;;;;;;;3.17;2.08;;;13.10;99.90;;;;;;4993403;28;20027;-80
2022/06/21 04:54:33;;;;;;;1.95;1.02;;;13.20;99.90;;;;;;4995536;28;20634;-78
2022/06/21 04:57:09;;;;;;;1.08;0.75;;;13.30;99.90;;;;;;4992854;28;20089;-79
2022/06/21 04:59:45;;;;;;;1.45;1.13;;;13.40;99.90;;;;;;4990964;28;20080;-80
2022/06/21 05:02:30;;;;;;;1.58;1.00;;;13.30;99.90;;;;;;4990321;28;20112;-83
2022/06/21 05:05:20;;;;;;;2.15;1.10;;;13.30;99.90;;;;;;4992295;28;20544;-79
2022/06/21 05:08:03;;;;;;;0.70;0.70;;;13.40;99.90;;;;;;4976734;28;20026;-79
2022/06/21 05:10:36;;;;;;;1.23;1.00;;;13.50;99.90;;;;;;4989800;28;20030;-82
2022/06/21 05:13:06;;;;;;;3.22;1.10;;;13.60;99.90;;;;;;4990868;28;20483;-80
2022/06/21 05:15:39;;;;;;;1.25;1.15;;;13.70;99.90;;;;;;4997714;28;20504;-80
2022/06/21 05:18:30;;;;;;;0.75;0.70;;;13.80;99.90;;;;;;4988178;28;20022;-81
2022/06/21 05:21:02;;;;;;;1.75;1.27;;;13.70;99.90;;;;;;4989920;28;20050;-79
2022/06/21 05:23:29;;;;;;;1.15;1.05;;;13.80;99.90;;;;;;4999868;28;20032;-79
2022/06/21 05:25:59;;;;;;;1.00;0.90;;;13.90;99.90;;;;;;4992974;28;20561;-81
2022/06/21 05:28:40;;;;;;;1.20;0.70;;;14.00;99.90;;;;;;4995560;28;20062;-79
2022/06/21 05:31:14;;;;;;;1.08;1.00;;;14.10;99.90;;;;;;4992029;28;20121;-79
2022/06/21 05:33:44;;;;;;;1.08;0.95;;;14.30;99.90;;;;;;4979387;28;20018;-81
2022/06/21 05:36:43;;;;;;;3.35;1.63;;;14.20;99.90;;;;;;5005621;28;20547;-79
2022/06/21 05:39:20;;;;;;;1.95;1.30;;;14.20;99.90;;;;;;4990609;28;20039;-80
2022/06/21 05:41:52;;;;;;;3.35;1.60;;;14.10;99.90;;;;;;4989602;28;20026;-81
2022/06/21 05:44:41;;;;;;;0.82;0.77;;;14.20;99.90;;;;;;4990799;28;20451;-83
2022/06/21 05:47:13;;;;;;;1.48;0.98;;;14.20;99.90;;;;;;5004156;28;20503;-84
2022/06/21 05:49:41;;;;;;;;;;;14.20;99.90;;;;;;4996098;28;20026;-83
2022/06/21 05:52:13;;;;;;;1.42;0.80;;;14.20;99.90;;;;;;4983839;28;19913;-83
2022/06/21 05:54:45;;;;;;;1.40;1.20;;;14.20;99.90;;;;;;5003685;28;20026;-81
2022/06/21 05:57:16;;;;;;;1.98;1.30;;;14.10;99.90;;;;;;5006147;28;20046;-82
2022/06/21 05:59:42;;;;;;;8.55;1.15;;;14.20;99.90;;;;;;4994618;28;20030;-82
2022/06/21 06:02:18;;;;;;;1.25;0.80;;;14.30;99.90;;;;;;4987007;28;20420;-82
2022/06/21 06:04:58;;;;;;;1.17;0.95;;;14.50;99.90;;;;;;4989853;28;20046;-81
2022/06/21 06:07:55;;;;;;;4.88;2.30;;;14.50;99.90;;;;;;5009400;28;20030;-83
2022/06/21 06:10:23;;;;;;;0.70;0.70;;;14.50;99.90;;;;;;4984230;28;20034;-81
2022/06/21 06:12:54;;;;;;;2.60;1.30;;;14.30;99.90;;;;;;4985348;28;20026;-83
2022/06/21 06:15:24;;;;;;;1.63;1.52;;;14.10;99.90;;;;;;4995964;28;20381;-83
2022/06/21 06:18:05;;;;;;;1.10;0.90;;;14.00;99.90;;;;;;4996650;28;20507;-83
2022/06/21 06:20:41;;;;;;;1.00;0.80;;;14.00;99.90;;;;;;4995014;28;20022;-83
2022/06/21 06:23:36;;;;;;;3.55;1.30;;;13.90;99.90;;;;;;4994475;28;20037;-82
2022/06/21 06:26:13;;;;;;;5.97;0.95;;;14.00;99.90;;;;;;4996112;28;20034;-83
2022/06/21 06:28:46;;;;;;;1.52;0.57;;;13.90;99.90;;;;;;4986662;28;20106;-81
2022/06/21 06:31:34;;;;;;;1.23;0.98;;;14.00;99.90;;;;;;4990876;28;20089;-80
2022/06/21 06:34:05;;;;;;;1.70;1.60;;;14.00;99.90;;;;;;4996398;28;20030;-86
2022/06/21 06:36:37;;;;;;;0.87;0.83;;;14.00;99.90;;;;;;4993231;28;20062;-80
2022/06/21 06:39:13;;;;;;;1.40;1.30;;;14.20;99.90;;;;;;4989990;28;20266;-81
2022/06/21 06:42:04;;;;;;;5.75;1.20;;;14.30;99.90;;;;;;4992642;28;20061;-81
2022/06/21 06:44:36;;;;;;;3.20;0.90;;;14.50;99.90;;;;;;4999957;28;20521;-84
2022/06/21 06:47:02;;;;;;;1.13;1.02;;;14.60;99.90;;;;;;5006666;28;20248;-82
2022/06/21 06:49:38;;;;;;;1.05;1.05;;;14.50;99.90;;;;;;4998521;28;20132;-82
2022/06/21 06:52:18;;;;;;;2.30;1.13;;;14.50;99.90;;;;;;4992968;28;20465;-83
2022/06/21 06:55:00;;;;;;;1.02;0.93;;;14.50;99.90;;;;;;4982859;28;20035;-81
2022/06/21 06:57:38;;;;;;;1.25;0.90;;;14.50;99.90;;;;;;4998262;28;20405;-85
2022/06/21 07:00:36;;;;;;;4.57;1.33;;;14.60;99.90;;;;;;4995052;28;20034;-79
2022/06/21 07:03:14;;;;;;;0.63;0.63;;;14.70;99.90;;;;;;4977808;28;20129;-84
2022/06/21 07:05:49;;;;;;;0.77;0.63;;;14.80;99.90;;;;;;4995636;28;20034;-85
2022/06/21 07:08:21;;;;;;;0.88;0.82;;;14.90;99.90;;;;;;4998820;28;20025;-84
2022/06/21 07:10:49;;;;;;;0.98;0.90;;;15.00;99.90;;;;;;5005611;28;20114;-84
2022/06/21 07:13:15;;;;;;;2.25;0.80;;;15.00;99.90;;;;;;4992065;28;20026;-82
2022/06/21 07:15:46;;;;;;;1.90;1.00;;;15.10;99.90;;;;;;4996460;28;20380;-82
2022/06/21 07:18:16;;;;;;;0.73;0.73;;;15.10;99.90;;;;;;4996833;28;20023;-81
2022/06/21 07:20:44;;;;;;;0.80;0.80;;;15.30;99.90;;;;;;5002673;28;20034;-79
2022/06/21 07:23:21;;;;;;;0.80;0.80;;;15.40;99.90;;;;;;4989646;28;20038;-80
2022/06/21 07:25:56;;;;;;;1.90;1.20;;;15.40;99.90;;;;;;5005968;28;20587;-80
2022/06/21 07:28:28;;;;;;;1.95;1.25;;;15.50;99.90;;;;;;4999806;28;20030;-80
2022/06/21 07:30:58;;;;;;;0.85;0.80;;;15.60;99.90;;;;;;5003104;28;20029;-83
2022/06/21 07:33:35;;;;;;;0.98;0.95;;;15.80;99.90;;;;;;4988560;28;20073;-76
2022/06/21 07:36:09;;;;;;;3.67;0.90;;;15.90;99.90;;;;;;4997111;28;20038;-75
2022/06/21 07:39:06;;;;;;;0.55;0.55;;;16.00;97.70;;;;;;4989042;28;20030;-75
2022/06/21 07:41:45;;;;;;;0.85;0.77;;;16.00;97.70;;;;;;4992795;28;20125;-76
2022/06/21 07:44:17;;;;;;;2.25;1.02;;;15.90;97.40;;;;;;5001038;28;20400;-75
2022/06/21 07:46:48;;;;;;;0.68;0.68;;;16.00;97.60;;;;;;4993969;28;20026;-76
2022/06/21 07:49:22;;;;;;;0.73;0.73;;;16.10;96.80;;;;;;5001102;28;20038;-76
2022/06/21 07:51:58;;;;;;;0.73;0.55;;;16.20;97.70;;;;;;5000638;28;20096;-76
2022/06/21 07:54:30;;;;;;;1.23;0.60;;;16.20;96.80;;;;;;5001064;28;20057;-77
2022/06/21 07:57:11;;;;;;;0.77;0.50;;;16.30;96.10;;;;;;4998288;28;20038;-78
2022/06/21 07:59:43;;;;;;;0.82;0.70;;;16.40;94.80;;;;;;4985298;28;20457;-76
2022/06/21 08:07:56;;;;;;;0.93;0.85;;;16.60;90.30;;;;;;4998437;28;20532;-79
2022/06/21 08:10:31;;;;;;;0.40;0.40;;;16.70;90.10;;;;;;4998147;28;20026;-76
2022/06/21 08:12:57;;;;;;;0.40;0.40;;;16.80;89.50;;;;;;4999744;28;20033;-77
2022/06/21 08:15:30;;;;;;;0.85;0.75;;;16.80;90.00;;;;;;4997759;28;20381;-78
2022/06/21 08:18:02;;;;;;;1.20;1.10;;;16.90;89.20;;;;;;4997470;28;20026;-78
2022/06/21 08:20:45;;;;;;;4.38;0.50;;;17.00;87.60;;;;;;4999098;28;20030;-78
2022/06/21 08:23:26;;;;;;;0.70;0.70;;;17.10;88.10;;;;;;4989834;28;20525;-78
2022/06/21 08:26:01;;;;;;;0.68;0.68;;;17.30;89.50;;;;;;4991123;28;20041;-83
2022/06/21 08:29:00;;;;;;;0.65;0.65;;;17.30;88.80;;;;;;4997800;28;20070;-78
2022/06/21 08:31:36;;;;;;;0.93;0.50;;;17.40;88.30;;;;;;4991115;28;20027;-75
2022/06/21 08:34:20;;;;;;;1.02;0.70;;;17.50;88.70;;;;;;4987293;28;20122;-76
2022/06/21 08:36:52;;;;;;;0.50;0.50;;;17.60;86.40;;;;;;4989954;28;20030;-76
2022/06/21 08:39:24;;;;;;;0.30;0.30;;;17.60;85.60;;;;;;4990976;28;20497;-78
2022/06/21 08:42:00;;;;;;;0.52;0.45;;;17.70;83.60;;;;;;4990987;28;20057;-78
2022/06/21 08:48:26;;;;;;;0.70;0.70;;;17.70;83.00;;;;;;4989146;28;20072;-76
2022/06/21 08:51:20;;;;;;;0.68;0.65;;;17.80;82.90;;;;;;4990492;28;20022;-76
2022/06/21 08:54:19;;;;;;;1.52;0.43;;;17.90;87.10;;;;;;4975895;28;20476;-80
2022/06/21 08:57:11;;;;;;;0.35;0.35;;;18.10;86.20;;;;;;4988122;28;20038;-81
2022/06/21 08:59:58;;;;;;;0.40;0.40;;;18.20;81.60;;;;;;4986651;28;20060;-77
2022/06/21 09:02:57;;;;;;;0.55;0.45;;;18.20;84.50;;;;;;4992838;28;20022;-83
2022/06/21 09:06:05;;;;;;;0.30;0.30;;;18.40;80.20;;;;;;4991362;28;20049;-82
2022/06/21 09:08:38;;;;;;;0.38;0.38;;;18.40;79.90;;;;;;4993659;28;20096;-73
2022/06/21 09:11:27;;;;;;;0.50;0.50;;;18.40;79.60;;;;;;5002006;28;20053;-76
2022/06/21 09:14:12;;;;;;;0.65;0.57;;;18.40;81.30;;;;;;4986057;28;20034;-76
2022/06/21 09:17:01;;;;;;;0.80;0.80;;;18.60;81.00;;;;;;4989259;28;20030;-76
2022/06/21 09:20:06;;;;;;;0.30;0.30;;;18.80;78.70;;;;;;4994768;28;20053;-76
2022/06/21 09:22:56;;;;;;;1.08;0.85;;;18.90;79.00;;;;;;4990596;28;20100;-76
2022/06/21 09:25:44;;;;;;;0.68;0.68;;;19.00;78.60;;;;;;4986512;28;20116;-76
2022/06/21 09:28:18;;;;;;;0.52;0.52;;;19.10;77.90;;;;;;4989441;28;20034;-76
2022/06/21 09:30:55;;;;;;;0.75;0.38;;;19.20;79.90;;;;;;4990423;28;20478;-75
2022/06/21 09:33:44;;;;;;;3.40;0.73;;;19.30;78.90;;;;;;4989534;28;20496;-76
2022/06/21 09:36:15;;;;;;;0.95;0.85;;;19.30;76.70;;;;;;4989694;28;20609;-76
2022/06/21 09:39:18;;;;;;;1.05;0.40;;;19.30;79.90;;;;;;4992403;28;20037;-76
2022/06/21 09:42:14;;;;;;;0.60;0.60;;;19.60;80.60;;;;;;4996170;28;20045;-77
2022/06/21 09:44:51;;;;;;;1.38;0.63;;;19.70;74.70;;;;;;4990370;28;20117;-79
2022/06/21 09:47:38;;;;;;;0.95;0.70;;;19.80;75.10;;;;;;4993175;28;20748;-78
2022/06/21 09:50:14;;;;;;;1.17;1.02;;;19.80;76.90;;;;;;4990815;28;20037;-83
2022/06/21 09:52:58;;;;;;;0.65;0.65;;;19.90;74.20;;;;;;4994842;28;20026;-79
2022/06/21 09:56:01;;;;;;;0.60;0.60;;;19.90;68.40;;;;;;5007834;28;20021;-78
2022/06/21 09:58:48;;;;;;;0.60;0.60;;;19.90;70.90;;;;;;4979839;28;20034;-79
2022/06/21 10:01:41;;;;;;;0.40;0.40;;;19.90;69.30;;;;;;4997924;28;20026;-79
2022/06/21 10:04:31;;;;;;;1.67;0.40;;;20.00;71.00;;;;;;4998036;28;20049;-79
2022/06/21 10:07:25;;;;;;;0.45;0.45;;;20.10;71.50;;;;;;5001629;28;20088;-79
2022/06/21 10:10:06;;;;;;;0.50;0.50;;;20.10;72.00;;;;;;4983621;28;20046;-79
2022/06/21 10:12:35;;;;;;;0.70;0.70;;;20.20;68.90;;;;;;4993136;28;20018;-78
2022/06/21 10:15:21;;;;;;;0.57;0.52;;;20.40;71.80;;;;;;4992449;28;20023;-78
2022/06/21 10:18:23;;;;;;;0.43;0.43;;;20.50;69.20;;;;;;4986414;28;20030;-79
2022/06/21 10:20:56;;;;;;;0.70;0.47;;;20.70;69.00;;;;;;4994665;28;20018;-78
2022/06/21 10:23:34;;;;;;;0.60;0.60;;;20.60;66.40;;;;;;4990274;28;20075;-78
2022/06/21 10:26:27;;;;;;;1.38;0.70;;;20.40;68.30;;;;;;4989396;28;20042;-78
2022/06/21 10:29:35;;;;;;;0.93;0.77;;;20.50;68.60;;;;;;4998370;28;20030;-79
2022/06/21 10:32:26;;;;;;;0.40;0.40;;;20.70;65.20;;;;;;4981463;28;20046;-79
2022/06/21 10:35:19;;;;;;;1.05;0.60;;;20.70;67.60;;;;;;5008721;28;20491;-78
2022/06/21 10:38:21;;;;;;;0.60;0.45;;;21.00;69.90;;;;;;4992477;28;20401;-79
2022/06/21 10:41:31;;;;;;;0.50;0.50;;;21.10;66.10;;;;;;4987781;28;20034;-79
2022/06/21 10:44:11;;;;;;;0.50;0.50;;;21.50;64.70;;;;;;4996914;28;20040;-77
2022/06/21 10:46:50;;;;;;;1.00;0.88;;;21.70;63.20;;;;;;4982694;28;20030;-79
2022/06/21 10:49:45;;;;;;;0.50;0.50;;;21.90;62.70;;;;;;4995836;28;20022;-79
2022/06/21 10:52:48;;;;;;;0.40;0.40;;;22.10;62.20;;;;;;4990206;28;20037;-79
2022/06/21 10:55:40;;;;;;;2.13;0.68;;;22.30;62.30;;;;;;4998238;28;20092;-80
2022/06/21 10:58:26;;;;;;;0.52;0.52;;;22.40;59.90;;;;;;4996867;28;20548;-77
2022/06/21 11:01:18;;;;;;;2.17;0.75;;;22.60;62.70;;;;;;4996551;28;20037;-78
2022/06/21 11:04:01;;;;;;;2.22;0.52;;;22.90;57.80;;;;;;4990884;28;20596;-80
2022/06/21 11:06:48;;;;;;;1.60;0.77;;;23.10;59.40;;;;;;4985851;28;20071;-80
2022/06/21 11:09:36;;;;;;;0.40;0.40;;;23.40;60.20;;;;;;4992352;28;20046;-79
2022/06/21 11:15:20;;;;;;;2.08;0.57;;;23.20;58.40;;;;;;5000232;28;20104;-79
2022/06/21 11:18:15;;;;;;;0.75;0.50;;;23.60;56.70;;;;;;5009171;28;20037;-79
2022/06/21 11:21:06;;;;;;;0.30;0.30;;;24.00;54.90;;;;;;5006664;28;20184;-78
2022/06/21 11:23:45;;;;;;;0.55;0.40;;;24.30;51.70;;;;;;4988358;28;20089;-79
2022/06/21 11:26:24;;;;;;;1.30;0.75;;;24.30;52.70;;;;;;4999147;28;20798;-78
2022/06/21 11:29:05;;;;;;;0.40;0.40;;;24.30;49.00;;;;;;4997084;28;20109;-79
2022/06/21 11:31:55;;;;;;;0.98;0.75;;;24.70;51.80;;;;;;4999595;28;20118;-79
2022/06/21 11:34:46;;;;;;;1.15;0.80;;;24.50;51.50;;;;;;4997040;28;20036;-79
2022/06/21 11:37:30;;;;;;;2.70;0.80;;;24.80;51.80;;;;;;4988557;28;20076;-79
2022/06/21 11:40:30;;;;;;;0.68;0.50;;;25.10;51.30;;;;;;4997381;28;20034;-78
2022/06/21 11:42:57;;;;;;;1.48;0.55;;;25.60;52.30;;;;;;4974394;28;20042;-80
2022/06/21 11:45:42;;;;;;;0.93;0.73;;;26.00;47.60;;;;;;4989289;28;20039;-80
2022/06/21 11:48:21;;;;;;;0.80;0.80;;;26.20;48.00;;;;;;4992535;28;20073;-78
2022/06/21 11:51:13;;;;;;;0.57;0.57;;;25.90;44.90;;;;;;4999906;28;20082;-78
2022/06/21 11:54:10;;;;;;;1.25;0.65;;;26.20;48.50;;;;;;4998007;28;20025;-79
2022/06/21 11:57:10;;;;;;;0.70;0.40;;;26.70;48.10;;;;;;4994319;28;20092;-79
2022/06/21 12:00:00;;;;;;;0.40;0.40;;;26.90;44.70;;;;;;4991938;28;20182;-80
2022/06/21 12:02:41;;;;;;;1.00;0.50;;;27.10;44.80;;;;;;5007707;28;20030;-81
2022/06/21 12:05:25;;;;;;;1.85;0.85;;;26.80;43.70;;;;;;5002929;28;20051;-80
2022/06/21 12:08:23;;;;;;;0.88;0.57;;;27.10;45.10;;;;;;4997768;28;20034;-80
2022/06/21 12:10:50;;;;;;;2.85;0.90;;;27.50;45.70;;;;;;4991700;28;20110;-80
2022/06/21 12:13:45;;;;;;;0.60;0.50;;;27.20;45.00;;;;;;4990914;28;20041;-80
2022/06/21 12:16:29;;;;;;;0.82;0.65;;;27.10;45.30;;;;;;4988154;28;20367;-81
2022/06/21 12:19:03;;;;;;;0.40;0.40;;;27.30;47.90;;;;;;4991761;28;20033;-80
2022/06/21 12:21:32;;;;;;;1.00;0.40;;;27.70;47.30;;;;;;5013827;28;20030;-81
2022/06/21 12:24:17;;;;;;;0.60;0.60;;;28.30;43.70;;;;;;5002262;28;20029;-79
2022/06/21 12:26:44;;;;;;;1.40;0.55;;;28.80;45.10;;;;;;4992903;28;20484;-79
2022/06/21 12:29:15;;;;;;;1.00;0.80;;;29.20;41.60;;;;;;4998247;28;20048;-77
2022/06/21 12:31:50;;;;;;;0.70;0.57;;;28.50;40.40;;;;;;5007156;28;20022;-78
2022/06/21 12:34:41;;;;;;;1.70;0.45;;;28.60;40.90;;;;;;5000056;28;20030;-79
2022/06/21 12:37:11;;;;;;;0.50;0.50;;;29.70;41.50;;;;;;4996206;28;20112;-76
2022/06/21 12:39:42;;;;;;;0.40;0.40;;;30.40;41.00;;;;;;4986594;28;20027;-76
2022/06/21 12:42:26;;;;;;;0.57;0.50;;;30.80;38.80;;;;;;5000469;28;20042;-76
2022/06/21 12:45:10;;;;;;;0.50;0.50;;;30.80;41.70;;;;;;4996930;28;20488;-76
2022/06/21 12:47:55;;;;;;;1.55;0.77;;;30.70;36.10;;;;;;5005099;28;20036;-76
2022/06/21 12:50:33;;;;;;;0.50;0.50;;;31.20;37.10;;;;;;4991101;28;20057;-76
2022/06/21 12:53:12;;;;;;;0.50;0.50;;;30.30;36.20;;;;;;4997110;28;20029;-76
2022/06/21 12:56:00;;;;;;;0.65;0.65;;;31.00;36.60;;;;;;4999164;28;20030;-75
2022/06/21 12:58:38;;;;;;;0.50;0.50;;;29.90;38.30;;;;;;4998561;28;20500;-78
2022/06/21 13:01:15;;;;;;;0.47;0.47;;;30.10;37.90;;;;;;4992795;28;20038;-79
2022/06/21 13:04:00;;;;;;;0.50;0.50;;;31.80;36.20;;;;;;4997503;28;20035;-79
2022/06/21 13:06:54;;;;;;;1.45;0.55;;;33.60;32.70;;;;;;5000452;28;20109;-77
2022/06/21 13:09:52;;;;;;;0.63;0.50;;;34.50;33.10;;;;;;5008704;28;20080;-78
2022/06/21 13:12:48;;;;;;;0.40;0.40;;;35.20;31.60;;;;;;5002861;28;20503;-77
2022/06/21 13:15:28;;;;;;;0.68;0.43;;;36.80;30.50;;;;;;5005595;28;20027;-78
2022/06/21 13:18:20;;;;;;;0.40;0.40;;;37.60;31.90;;;;;;4991193;28;20659;-78
2022/06/21 13:21:08;;;;;;;1.65;0.60;;;38.10;28.00;;;;;;4980735;28;20119;-80
2022/06/21 13:23:46;;;;;;;0.40;0.40;;;36.90;29.50;;;;;;4995008;28;20025;-78
2022/06/21 13:26:54;;;;;;;0.93;0.52;;;36.70;30.40;;;;;;4992995;28;20032;-78
2022/06/21 13:29:35;;;;;;;0.77;0.60;;;39.00;29.90;;;;;;5005652;28;20030;-82
2022/06/21 13:32:06;;;;;;;1.35;0.82;;;39.30;27.60;;;;;;4990885;28;20033;-81
2022/06/21 13:34:43;;;;;;;2.05;0.82;;;38.40;28.20;;;;;;4995582;28;20041;-83
2022/06/21 13:37:35;;;;;;;0.93;0.68;;;39.70;28.10;;;;;;4993526;28;20568;-78
2022/06/21 13:40:25;;;;;;;1.40;1.08;;;39.20;28.10;;;;;;4991770;28;20034;-79
2022/06/21 13:43:15;;;;;;;0.50;0.50;;;39.30;29.10;;;;;;4989685;28;20076;-85
2022/06/21 13:46:02;;;;;;;1.20;0.70;;;39.90;27.00;;;;;;4985512;28;20034;-80
2022/06/21 13:48:42;;;;;;;0.50;0.50;;;39.20;27.20;;;;;;4992371;28;20125;-82
2022/06/21 13:51:14;;;;;;;1.00;0.90;;;40.00;26.70;;;;;;4988369;28;20699;-79
2022/06/21 13:53:55;;;;;;;0.60;0.60;;;40.10;26.80;;;;;;4985339;28;20029;-80
2022/06/21 13:56:30;;;;;;;1.75;0.60;;;40.10;28.60;;;;;;4984372;28;20036;-80
2022/06/21 13:59:12;;;;;;;0.82;0.55;;;39.30;26.20;;;;;;4990001;28;20075;-77
2022/06/21 14:01:50;;;;;;;0.65;0.60;;;38.40;27.70;;;;;;4999495;28;20026;-78
2022/06/21 14:04:26;;;;;;;0.55;0.55;;;38.30;27.00;;;;;;4993867;28;20501;-79